PAKTPAKW

Guest
Details From PAKT - Ketchikan Intl
To PAKW - Klawock
Flight Number -
Tags Generated
Created
Modified
Stats Distance 48 nm / 89 km
Max Altitude 0 ft / 0 m
Waypoints 2
Social Downloads 5
Likes 0
Share VATSIM

Download

Looking for another format? Having issues loading an existing format? Contact us
Advertisement - Login to hide

Notes

Generated

Route

PAKT PAKW

ID Type Via Altitude Latitude Longitude Leg Dist Tot Dist Heading (true) Name
O PAKT APT - 0 ft / 0 m 55.36288˚ -131.72634˚ - 0 nm - -
O PAKW APT - 0 ft / 0 m 55.57392˚ -133.08362˚ 47 nm 47 nm 286° / 285° -

Altitude Profile

Advertisement - Login to hide

PAKT

Details ICAO PAKT (KTN)
Name KETCHIKAN INTL
Region USA (Alaska)
Timezone Unknown (UTC+0.0)
Stats Elevation 88 ft / 27 m (AMSL)
Location 55.355545° -131.713737°
Runways 1
Magnetic Variation 18.431° E

METAR

PAKT 201553Z 14009KT 10SM FEW012 FEW018 OVC026 10/08 A2994

Decode

TAF

PAKT 201134Z 2012/2112 15007KT P6SM VCSH BKN020 OVC060 FM201800 14010KT P6SM VCSH SCT040 OVC050 FM202100 14013G23KT P6SM -RA SCT015 OVC025 FM210300 14012KT P6SM -RA SCT025 BKN035 OVC050 WS020/16035KT AMD LTD TO CLD VIS AND WIND 2012/2015

Decode

Departure Runways

ID Width Length Bearing (true) Bearing (mag) Surface Threshold Offset Overrun Length
11 150 ft / 46 m 7,485 ft / 2,281 m 135.66° 117.23° Asphalt 0 ft / 0 m 200 ft / 61 m
29 150 ft / 46 m 7,485 ft / 2,281 m 315.68° 297.25° Asphalt 0 ft / 0 m 100 ft / 30 m

PAKW

Details ICAO PAKW (KLW)
Name KLAWOCK
Region USA (Alaska)
Timezone Unknown (UTC+0.0)
Stats Elevation 80 ft / 24 m (AMSL)
Location 55.579232° -133.075997°
Runways 1
Magnetic Variation 18.443° E

METAR

PAKW 201553Z AUTO 00000KT 10SM OVC014 09/08 A2988 RMK AO2 SLP117 T00940083 TSNO

Decode

TAF

PAKW 201134Z 2012/2112 VRB04KT P6SM BKN016 OVC080 TEMPO 2012/2016 SCT016 OVC080 FM201600 12005KT P6SM VCSH OVC025 FM202100 18008KT P6SM -RA BKN015 OVC030 FM210300 19003KT 6SM -RA BR BKN015 OVC025 AMD LTD TO CLD VIS AND WIND

Decode

Destination Runways

ID Width Length Bearing (true) Bearing (mag) Surface Threshold Offset Overrun Length
02 100 ft / 30 m 4,991 ft / 1,521 m 39.06° 20.62° Asphalt 0 ft / 0 m 0 ft / 0 m
20 100 ft / 30 m 4,991 ft / 1,521 m 219.07° 200.63° Asphalt 0 ft / 0 m 0 ft / 0 m

Popular Alternatives